Time;durP1;ratioP1;P1;durP2;ratioP2;P2;SDS_P1;SDS_P2;PMS_P1;PMS_P2;Temp;Humidity;BMP_temperature;BMP_pressure;BME280_temperature;BME280_humidity;BME280_pressure;Samples;Min_cycle;Max_cycle;Signal;HPM_P1;HPM_P2
2022/04/01 00:00:47;;;;;;;19.27;15.20;;;;;;;6.93;93.24;98820.55;1703633;82;21074;-73
2022/04/01 00:03:14;;;;;;;17.30;14.47;;;;;;;6.95;93.47;98821.16;1694398;82;20990;-71
2022/04/01 00:05:43;;;;;;;15.43;13.83;;;;;;;6.99;93.61;98816.27;1690608;82;21099;-72
2022/04/01 00:08:12;;;;;;;16.63;13.20;;;;;;;7.02;93.69;98810.55;1684650;82;21087;-71
2022/04/01 00:10:40;;;;;;;18.90;14.67;;;;;;;7.05;93.69;98814.13;1708813;82;21060;-72
2022/04/01 00:13:07;;;;;;;19.03;15.77;;;;;;;7.08;93.67;98811.56;1702007;82;21037;-72
2022/04/01 00:15:34;;;;;;;21.27;16.20;;;;;;;7.09;93.57;98799.45;1702181;82;22304;-70
2022/04/01 00:18:03;;;;;;;18.07;13.90;;;;;;;7.10;93.57;98791.82;1714276;82;21574;-72
2022/04/01 00:20:31;;;;;;;26.13;17.77;;;;;;;7.10;93.51;98783.03;1704913;82;21046;-72
2022/04/01 00:22:59;;;;;;;25.43;19.53;;;;;;;7.08;93.56;98787.73;1687644;82;21606;-73
2022/04/01 00:25:27;;;;;;;22.47;18.70;;;;;;;7.06;93.73;98778.65;1690795;85;21086;-72
2022/04/01 00:27:54;;;;;;;28.30;20.00;;;;;;;7.02;93.90;98761.02;1691160;85;21188;-71
2022/04/01 00:30:23;;;;;;;25.43;19.50;;;;;;;6.99;94.17;98759.31;1677047;84;21135;-73
2022/04/01 00:32:49;;;;;;;;;;;;;;;6.95;94.58;98754.09;1689512;84;21239;-73
2022/04/01 00:35:16;;;;;;;23.83;19.30;;;;;;;6.91;94.79;98751.06;1710253;83;20191;-71
2022/04/01 00:37:43;;;;;;;;;;;;;;;6.87;95.15;98737.89;1718176;83;21022;-73
2022/04/01 00:40:12;;;;;;;;;;;;;;;6.86;95.37;98745.55;1720508;83;20126;-71
2022/04/01 00:42:41;;;;;;;23.23;18.63;;;;;;;6.82;95.68;98759.70;1700682;83;21078;-72
2022/04/01 00:45:10;;;;;;;20.63;16.83;;;;;;;6.81;95.91;98744.81;1708146;83;21514;-71
2022/04/01 00:47:39;;;;;;;20.83;18.03;;;;;;;6.87;96.04;98743.19;1691048;83;21757;-73
2022/04/01 00:50:08;;;;;;;19.07;15.80;;;;;;;6.90;96.05;98738.02;1690577;83;21066;-72
2022/04/01 00:52:36;;;;;;;20.40;17.03;;;;;;;6.92;95.87;98743.92;1689156;84;21732;-71
2022/04/01 00:55:08;;;;;;;19.63;15.80;;;;;;;6.95;95.86;98740.84;1678275;84;21381;-71
2022/04/01 00:57:37;;;;;;;20.60;17.37;;;;;;;6.94;95.86;98751.95;1691066;84;21035;-71
2022/04/01 01:00:07;;;;;;;18.50;16.33;;;;;;;6.97;95.88;98745.45;1691479;83;21537;-73
2022/04/01 01:02:34;;;;;;;19.07;15.87;;;;;;;7.02;95.97;98745.64;1686318;83;20999;-73
2022/04/01 01:05:03;;;;;;;16.97;15.17;;;;;;;7.10;95.98;98737.99;1688153;83;21131;-72
2022/04/01 01:07:32;;;;;;;20.83;16.67;;;;;;;7.14;95.95;98737.39;1693037;83;21080;-73
2022/04/01 01:10:00;;;;;;;17.80;15.37;;;;;;;7.15;95.86;98729.73;1689632;83;21122;-72
2022/04/01 01:12:27;;;;;;;20.50;15.97;;;;;;;7.16;95.86;98739.33;1690371;83;21066;-72
2022/04/01 01:14:54;;;;;;;19.90;16.97;;;;;;;7.18;95.77;98728.53;1690997;83;21034;-73
2022/04/01 01:17:20;;;;;;;19.35;17.20;;;;;;;7.18;95.83;98737.28;1683148;83;21537;-73
2022/04/01 01:19:48;;;;;;;18.20;16.27;;;;;;;7.20;95.83;98737.89;1692894;83;20983;-72
2022/04/01 01:22:16;;;;;;;21.13;16.83;;;;;;;7.21;95.80;98731.58;1689835;83;21549;-72
2022/04/01 01:24:43;;;;;;;18.03;16.13;;;;;;;7.21;95.72;98726.77;1663689;85;21089;-72
2022/04/01 01:27:11;;;;;;;23.00;16.87;;;;;;;7.23;95.75;98730.02;1693139;83;21420;-73
2022/04/01 01:29:40;;;;;;;18.77;16.87;;;;;;;7.25;95.77;98727.98;1684689;83;21119;-73
2022/04/01 01:32:12;;;;;;;21.40;16.63;;;;;;;7.27;95.83;98717.18;1692012;83;21014;-72
2022/04/01 01:34:40;;;;;;;18.27;16.40;;;;;;;7.28;95.80;98712.20;1711704;82;21075;-73
2022/04/01 01:37:11;;;;;;;18.73;16.33;;;;;;;7.29;95.69;98707.19;1726296;82;21060;-71
2022/04/01 01:39:40;;;;;;;20.70;17.30;;;;;;;7.24;95.61;98722.39;1708557;82;21071;-72
2022/04/01 01:42:08;;;;;;;18.47;16.60;;;;;;;7.21;95.51;98718.33;1716431;82;21132;-73
2022/04/01 01:44:35;;;;;;;20.00;17.70;;;;;;;7.16;95.51;98700.91;1727489;82;21056;-73
2022/04/01 01:47:04;;;;;;;23.30;19.73;;;;;;;7.14;95.60;98697.65;1746205;82;21058;-72
2022/04/01 01:49:31;;;;;;;23.73;20.77;;;;;;;7.10;95.69;98699.09;1748164;82;21553;-73
2022/04/01 01:54:43;;;;;;;24.50;21.83;;;;;;;7.06;95.62;98674.52;1748282;82;21160;-71
2022/04/01 01:57:13;;;;;;;27.33;23.70;;;;;;;7.00;95.74;98670.34;1695883;82;21101;-72
2022/04/01 01:59:40;;;;;;;25.73;21.47;;;;;;;6.99;95.95;98670.56;1689776;83;21517;-74
2022/04/01 02:02:08;;;;;;;24.33;21.93;;;;;;;6.97;96.20;98667.31;1693852;83;21097;-70
2022/04/01 02:04:36;;;;;;;27.00;22.83;;;;;;;6.95;96.20;98658.24;1717365;83;21049;-72
2022/04/01 02:07:05;;;;;;;24.67;21.87;;;;;;;6.92;96.39;98658.64;1692247;83;21391;-72
2022/04/01 02:09:32;;;;;;;26.73;21.47;;;;;;;6.91;96.53;98650.41;1719223;83;21046;-72
2022/04/01 02:12:00;;;;;;;24.33;21.73;;;;;;;6.89;96.62;98656.39;1715417;83;21226;-72
2022/04/01 02:14:27;;;;;;;24.63;21.53;;;;;;;6.86;96.70;98648.88;1710039;83;21364;-72
2022/04/01 02:16:54;;;;;;;24.40;20.50;;;;;;;6.76;96.86;98630.77;1710236;82;21113;-70
2022/04/01 02:19:22;;;;;;;27.80;21.80;;;;;;;6.81;97.00;98615.56;1696438;83;21094;-73
2022/04/01 02:21:50;;;;;;;22.10;18.70;;;;;;;6.77;97.29;98603.77;1695935;83;21173;-73
2022/04/01 02:24:18;;;;;;;22.13;18.90;;;;;;;6.73;97.48;98609.98;1705596;82;21044;-73
2022/04/01 02:26:47;;;;;;;20.67;17.90;;;;;;;6.72;97.64;98599.07;1696942;82;21075;-73
2022/04/01 02:29:18;;;;;;;22.37;17.33;;;;;;;6.69;97.82;98598.17;1701460;82;21130;-73
2022/04/01 02:31:49;;;;;;;21.40;17.90;;;;;;;6.66;98.07;98603.88;1686971;82;21127;-74
2022/04/01 02:34:26;;;;;;;21.42;19.25;;;;;;;6.63;98.24;98595.84;1686278;84;21075;-73
2022/04/01 02:36:57;;;;;;;24.37;19.30;;;;;;;6.65;98.43;98613.34;1699424;84;21575;-72
2022/04/01 02:39:23;;;;;;;22.80;20.00;;;;;;;6.65;98.54;98608.88;1680219;84;21559;-73
2022/04/01 02:41:51;;;;;;;21.60;18.57;;;;;;;6.65;98.67;98593.00;1698734;84;21619;-72
2022/04/01 02:44:18;;;;;;;24.87;20.20;;;;;;;6.66;98.75;98591.16;1701155;83;21085;-71
2022/04/01 02:46:46;;;;;;;22.50;19.53;;;;;;;6.68;98.86;98592.56;1706010;83;21077;-71
2022/04/01 02:49:16;;;;;;;21.37;17.50;;;;;;;6.69;98.93;98582.81;1699288;83;21082;-71
2022/04/01 02:51:47;;;;;;;21.17;18.73;;;;;;;6.71;99.02;98588.19;1703712;83;21868;-72
2022/04/01 02:54:20;;;;;;;20.37;18.17;;;;;;;6.72;99.12;98575.76;1705768;83;21130;-73
2022/04/01 02:56:45;;;;;;;18.63;16.83;;;;;;;6.73;99.13;98560.99;1710536;82;21037;-72
2022/04/01 02:59:13;;;;;;;18.93;16.73;;;;;;;6.74;99.20;98565.77;1703563;83;21522;-72
2022/04/01 03:01:40;;;;;;;;;;;;;;;6.74;99.26;98566.61;1705133;82;21566;-74
2022/04/01 03:04:10;;;;;;;21.45;17.10;;;;;;;6.73;99.27;98568.94;1716810;82;20164;-73
2022/04/01 03:06:40;;;;;;;19.93;17.87;;;;;;;6.71;99.55;98564.88;1720123;82;21038;-74
2022/04/01 03:09:09;;;;;;;17.57;15.77;;;;;;;6.72;99.64;98573.11;1718352;82;21097;-73
2022/04/01 03:11:37;;;;;;;17.07;15.47;;;;;;;6.74;99.66;98568.42;1683771;81;21540;-70
2022/04/01 03:14:06;;;;;;;18.37;15.70;;;;;;;6.77;99.66;98564.05;1690823;83;21045;-74
2022/04/01 03:16:53;;;;;;;16.37;14.77;;;;;;;6.80;99.60;98571.06;1683903;83;21145;-74
2022/04/01 03:19:20;;;;;;;15.63;14.03;;;;;;;6.83;99.56;98560.56;1683490;83;21098;-73
2022/04/01 03:21:47;;;;;;;15.58;13.72;;;;;;;6.87;99.53;98565.73;1693645;83;21157;-73
2022/04/01 03:24:14;;;;;;;17.53;15.90;;;;;;;6.90;99.42;98565.86;1720460;81;22209;-73
2022/04/01 03:26:42;;;;;;;16.37;13.77;;;;;;;6.92;99.42;98552.70;1707008;83;22170;-74
2022/04/01 03:29:13;;;;;;;14.87;13.47;;;;;;;6.94;99.33;98552.49;1716916;82;21476;-74
2022/04/01 03:31:40;;;;;;;16.47;14.90;;;;;;;6.93;99.31;98559.63;1711919;82;21038;-73
2022/04/01 03:34:07;;;;;;;15.23;13.83;;;;;;;6.94;99.41;98557.79;1711929;82;21084;-72
2022/04/01 03:36:35;;;;;;;14.57;13.10;;;;;;;6.96;99.45;98566.34;1700429;84;21498;-72
2022/04/01 03:39:04;;;;;;;14.70;13.33;;;;;;;6.97;99.55;98560.03;1706071;84;21355;-72
2022/04/01 03:41:33;;;;;;;16.60;15.10;;;;;;;6.96;99.64;98557.88;1704691;84;21074;-73
2022/04/01 03:44:03;;;;;;;14.90;13.57;;;;;;;6.98;99.71;98557.16;1661781;84;21051;-68
2022/04/01 03:46:41;;;;;;;15.97;14.37;;;;;;;7.00;99.71;98563.57;1709230;82;21117;-71
2022/04/01 03:49:12;;;;;;;16.70;15.10;;;;;;;7.01;99.68;98567.86;1707077;82;21077;-72
2022/04/01 03:51:39;;;;;;;18.10;16.40;;;;;;;7.07;99.72;98571.52;1713658;82;21120;-73
2022/04/01 03:54:07;;;;;;;17.97;16.27;;;;;;;7.14;99.61;98578.91;1717928;82;21070;-70
2022/04/01 03:56:37;;;;;;;16.63;15.07;;;;;;;7.17;99.70;98572.67;1675477;84;20983;-73
2022/04/01 03:59:26;;;;;;;17.73;15.97;;;;;;;7.19;99.68;98581.75;1729153;82;21239;-73
2022/04/01 04:02:12;;;;;;;19.53;17.50;;;;;;;7.19;99.69;98575.92;1707965;82;21051;-74
2022/04/01 04:04:40;;;;;;;19.77;17.87;;;;;;;7.19;99.77;98577.77;1721044;82;21069;-72
2022/04/01 04:07:08;;;;;;;20.00;17.97;;;;;;;7.20;99.84;98575.44;1717579;82;20982;-72
2022/04/01 04:09:40;;;;;;;20.17;18.17;;;;;;;7.20;99.86;98576.24;1717789;82;21069;-71
2022/04/01 04:12:13;;;;;;;21.70;19.60;;;;;;;7.20;99.97;98581.55;1682661;84;22774;-74
2022/04/01 04:14:43;;;;;;;20.83;18.73;;;;;;;7.25;100.00;98577.45;1722035;82;21096;-73
2022/04/01 04:17:14;;;;;;;19.57;17.77;;;;;;;7.27;100.00;98567.45;1723931;82;21043;-73
2022/04/01 04:20:06;;;;;;;22.57;20.17;;;;;;;7.28;100.00;98569.89;1701019;83;21114;-73
2022/04/01 04:23:10;;;;;;;21.27;19.00;;;;;;;7.30;100.00;98561.73;1677960;84;21134;-71
2022/04/01 04:25:39;;;;;;;21.97;19.87;;;;;;;7.32;100.00;98549.08;1692522;83;21055;-73
2022/04/01 04:28:10;;;;;;;22.27;20.07;;;;;;;7.33;100.00;98551.53;1655955;86;21031;-72
2022/04/01 04:30:51;;;;;;;22.50;20.33;;;;;;;7.33;100.00;98549.40;1689623;84;21439;-72
2022/04/01 04:33:28;;;;;;;21.07;18.97;;;;;;;7.34;100.00;98539.08;1677527;85;22000;-73
2022/04/01 04:36:01;;;;;;;22.73;20.57;;;;;;;7.32;100.00;98529.20;1693286;84;21541;-73
2022/04/01 04:38:35;;;;;;;22.27;19.97;;;;;;;7.30;100.00;98526.77;1688457;83;21019;-73
2022/04/01 04:41:04;;;;;;;24.97;22.40;;;;;;;7.30;100.00;98536.03;1690044;84;21119;-71
2022/04/01 04:43:33;;;;;;;24.70;22.17;;;;;;;7.30;100.00;98533.91;1695968;84;21022;-72
2022/04/01 04:46:02;;;;;;;23.80;21.50;;;;;;;7.31;100.00;98524.42;1699507;83;21624;-69
2022/04/01 04:48:28;;;;;;;24.93;22.40;;;;;;;7.31;100.00;98518.29;1692981;83;21184;-74
2022/04/01 04:50:59;;;;;;;26.40;23.67;;;;;;;7.32;100.00;98514.11;1698582;83;22302;-71
2022/04/01 04:53:30;;;;;;;26.63;24.00;;;;;;;7.35;100.00;98511.56;1706069;83;21051;-72
2022/04/01 04:55:59;;;;;;;27.23;24.47;;;;;;;7.37;100.00;98504.22;1697386;83;21047;-73
2022/04/01 04:58:39;;;;;;;26.63;24.03;;;;;;;7.42;100.00;98504.37;1709361;83;21153;-71
2022/04/01 05:01:21;;;;;;;27.67;24.73;;;;;;;7.45;100.00;98496.00;1702545;83;21099;-69
2022/04/01 05:04:31;;;;;;;27.17;24.50;;;;;;;7.47;100.00;98492.63;1677769;84;20991;-71
2022/04/01 05:07:34;;;;;;;;;;;;;;;7.50;100.00;98488.75;1670920;86;21086;-71
2022/04/01 05:10:29;;;;;;;31.00;27.75;;;;;;;7.50;100.00;98489.55;1668526;85;20246;-69
2022/04/01 05:13:28;;;;;;;31.13;28.03;;;;;;;7.45;100.00;98484.07;1688039;83;21035;-71
2022/04/01 05:16:08;;;;;;;30.13;26.90;;;;;;;7.49;100.00;98481.29;1690785;83;21119;-71
2022/04/01 05:18:56;;;;;;;28.23;25.20;;;;;;;7.52;100.00;98478.74;1657886;85;21212;-71
2022/04/01 05:21:26;;;;;;;30.33;27.13;;;;;;;7.55;100.00;98484.92;1687054;83;21052;-72
2022/04/01 05:24:01;;;;;;;30.30;27.30;;;;;;;7.58;100.00;98480.00;1690648;83;21050;-72
2022/04/01 05:26:40;;;;;;;35.05;27.70;;;;;;;7.62;100.00;98480.39;1692562;83;21030;-73
2022/04/01 05:29:25;;;;;;;33.50;27.20;;;;;;;7.66;100.00;98476.28;1656053;85;21045;-73
2022/04/01 05:31:55;;;;;;;30.07;26.93;;;;;;;7.69;100.00;98480.36;1688792;83;21026;-72
2022/04/01 05:34:49;;;;;;;32.97;29.67;;;;;;;7.73;100.00;98479.70;1707219;82;22208;-71
2022/04/01 05:37:18;;;;;;;31.13;27.80;;;;;;;7.78;100.00;98487.03;1719115;82;21088;-71
2022/04/01 05:39:46;;;;;;;32.90;29.30;;;;;;;7.85;100.00;98481.66;1716074;83;21096;-71
2022/04/01 05:42:18;;;;;;;33.13;28.27;;;;;;;7.89;100.00;98481.03;1719267;82;21025;-73
2022/04/01 05:44:47;;;;;;;32.97;28.67;;;;;;;7.95;100.00;98478.02;1718335;82;21623;-74
2022/04/01 05:47:16;;;;;;;32.10;28.87;;;;;;;7.98;100.00;98474.39;1715394;81;21074;-73
2022/04/01 05:49:47;;;;;;;31.00;28.00;;;;;;;8.05;100.00;98470.89;1706701;82;21085;-73
2022/04/01 05:52:16;;;;;;;32.80;28.97;;;;;;;8.09;100.00;98471.55;1716304;82;21039;-74
2022/04/01 05:54:44;;;;;;;33.77;30.13;;;;;;;8.14;100.00;98468.27;1707478;82;21079;-73
2022/04/01 05:57:11;;;;;;;35.60;31.57;;;;;;;8.20;100.00;98456.77;1704728;82;21066;-72
2022/04/01 05:59:41;;;;;;;39.80;31.13;;;;;;;8.23;100.00;98455.50;1704449;83;21023;-74
2022/04/01 06:02:37;;;;;;;34.13;30.30;;;;;;;8.25;100.00;98452.95;1708231;83;21091;-74
2022/04/01 06:05:38;;;;;;;36.57;30.00;;;;;;;8.30;100.00;98454.94;1691777;84;21030;-71
2022/04/01 06:08:26;;;;;;;43.50;33.10;;;;;;;8.32;100.00;98457.66;1626698;85;21039;-73
2022/04/01 06:11:33;;;;;;;38.10;32.40;;;;;;;8.35;100.00;98454.57;1704899;84;21095;-73
2022/04/01 06:14:39;;;;;;;47.10;33.50;;;;;;;8.39;100.00;98451.77;1682709;84;21063;-74
2022/04/01 06:17:42;;;;;;;49.33;35.33;;;;;;;8.44;100.00;98458.28;1706325;84;21082;-75
2022/04/01 06:20:13;;;;;;;44.53;34.00;;;;;;;8.48;100.00;98456.31;1700435;83;21560;-76
2022/04/01 06:22:52;;;;;;;41.87;33.57;;;;;;;8.53;100.00;98448.50;1703258;84;21011;-70
2022/04/01 06:25:23;;;;;;;39.07;34.00;;;;;;;8.56;100.00;98444.05;1677667;84;21094;-74
2022/04/01 06:27:55;;;;;;;40.37;34.50;;;;;;;8.60;100.00;98442.30;1702748;84;21059;-74
2022/04/01 06:30:23;;;;;;;44.73;33.30;;;;;;;8.63;100.00;98441.34;1704756;83;21046;-74
2022/04/01 06:33:35;;;;;;;49.87;33.63;;;;;;;8.67;100.00;98437.20;1705202;84;21074;-75
2022/04/01 06:36:06;;;;;;;46.97;35.97;;;;;;;8.71;100.00;98432.26;1697854;84;21058;-72
2022/04/01 06:38:53;;;;;;;42.77;33.47;;;;;;;8.73;100.00;98434.98;1695642;84;21058;-74
2022/04/01 06:41:25;;;;;;;39.33;34.53;;;;;;;8.77;100.00;98441.98;1699081;84;21054;-77
2022/04/01 06:43:55;;;;;;;41.13;34.07;;;;;;;8.82;100.00;98434.17;1709571;84;21042;-76
2022/04/01 06:46:40;;;;;;;44.63;34.93;;;;;;;8.89;100.00;98438.05;1697304;83;21066;-75
2022/04/01 06:49:17;;;;;;;42.10;34.00;;;;;;;8.95;100.00;98440.64;1707776;84;21129;-78
2022/04/01 06:52:04;;;;;;;45.25;34.70;;;;;;;9.02;100.00;98431.23;1695762;84;21138;-75
2022/04/01 06:54:50;;;;;;;41.42;32.48;;;;;;;9.09;100.00;98437.80;1710419;84;21097;-79
2022/04/01 06:57:24;;;;;;;43.43;36.47;;;;;;;9.11;100.00;98428.56;1708185;82;21676;-74
2022/04/01 07:00:13;;;;;;;56.23;38.23;;;;;;;9.16;100.00;98426.05;1720968;82;21628;-77
2022/04/01 07:02:41;;;;;;;45.47;37.70;;;;;;;9.24;100.00;98430.23;1712152;82;21034;-78
2022/04/01 07:05:10;;;;;;;49.67;38.00;;;;;;;9.34;100.00;98426.52;1718125;82;21122;-75
2022/04/01 07:07:45;;;;;;;44.83;37.77;;;;;;;9.42;100.00;98424.05;1722104;82;21129;-75
2022/04/01 07:10:14;;;;;;;48.93;38.50;;;;;;;9.49;100.00;98430.09;1718765;82;21471;-77
2022/04/01 07:12:43;;;;;;;51.03;39.80;;;;;;;9.54;100.00;98428.06;1714713;82;21110;-76
2022/04/01 07:15:13;;;;;;;50.43;38.50;;;;;;;9.61;100.00;98429.30;1716140;83;21054;-76
2022/04/01 07:17:41;;;;;;;39.43;35.07;;;;;;;9.66;100.00;98420.92;1713572;82;21026;-77
2022/04/01 07:20:12;;;;;;;40.70;35.20;;;;;;;9.71;100.00;98422.88;1717078;83;21050;-77
2022/04/01 07:22:42;;;;;;;45.80;36.27;;;;;;;9.71;100.00;98426.34;1712124;83;21038;-79
2022/04/01 07:25:11;;;;;;;47.10;37.47;;;;;;;9.72;100.00;98423.19;1702933;83;21078;-77
2022/04/01 07:27:39;;;;;;;47.03;37.03;;;;;;;9.74;100.00;98413.92;1690759;83;21099;-80
2022/04/01 07:30:08;;;;;;;39.80;34.97;;;;;;;9.77;100.00;98421.95;1712257;83;21003;-72
2022/04/01 07:32:39;;;;;;;38.63;32.47;;;;;;;9.77;100.00;98427.28;1699519;83;21002;-76
2022/04/01 07:35:15;;;;;;;37.13;33.30;;;;;;;9.74;100.00;98425.90;1715431;81;21096;-70
2022/04/01 07:37:45;;;;;;;37.63;32.03;;;;;;;9.72;100.00;98422.66;1741958;81;21037;-76
2022/04/01 07:40:15;;;;;;;41.63;33.70;;;;;;;9.68;100.00;98424.66;1727062;81;21123;-79
2022/04/01 07:42:43;;;;;;;39.40;33.33;;;;;;;9.67;100.00;98418.53;1721620;81;21710;-75
2022/04/01 07:45:13;;;;;;;48.07;34.73;;;;;;;9.69;100.00;98419.64;1714256;81;21135;-76
2022/04/01 07:47:44;;;;;;;37.47;32.70;;;;;;;9.68;100.00;98416.18;1724982;81;21101;-77
2022/04/01 07:50:14;;;;;;;49.67;35.93;;;;;;;9.72;100.00;98412.55;1725681;81;21676;-78
2022/04/01 07:52:43;;;;;;;52.43;34.77;;;;;;;9.74;100.00;98405.14;1730207;81;20966;-76
2022/04/01 07:55:14;;;;;;;50.40;34.70;;;;;;;9.78;100.00;98405.49;1726635;81;21258;-79
2022/04/01 07:57:47;;;;;;;42.00;32.60;;;;;;;9.77;99.28;98404.66;1725976;81;20970;-78
2022/04/01 08:00:17;;;;;;;42.57;31.47;;;;;;;9.77;99.49;98403.86;1729220;81;21115;-77
2022/04/01 08:02:49;;;;;;;47.47;37.10;;;;;;;9.76;99.13;98403.06;1721602;81;21040;-77
2022/04/01 08:05:19;;;;;;;48.97;36.03;;;;;;;9.77;99.23;98399.34;1720687;81;21068;-75
2022/04/01 08:07:47;;;;;;;39.90;32.50;;;;;;;9.79;99.32;98398.59;1723304;81;21006;-75
2022/04/01 08:10:15;;;;;;;43.43;33.80;;;;;;;9.80;99.24;98398.09;1726325;81;21049;-74
2022/04/01 08:12:45;;;;;;;48.30;35.17;;;;;;;9.81;99.42;98393.04;1724122;81;21078;-76
2022/04/01 08:15:18;;;;;;;43.60;32.60;;;;;;;9.82;99.56;98386.16;1701885;83;21176;-76
2022/04/01 08:17:45;;;;;;;47.07;34.17;;;;;;;9.82;98.94;98376.85;1722217;81;21767;-72
2022/04/01 08:20:16;;;;;;;61.73;36.80;;;;;;;9.84;99.16;98379.28;1726283;81;21076;-79
2022/04/01 08:22:44;;;;;;;51.53;36.83;;;;;;;9.87;99.41;98376.97;1724761;81;21018;-78
2022/04/01 08:25:13;;;;;;;49.43;33.73;;;;;;;9.93;99.53;98367.25;1718311;81;21027;-75
2022/04/01 08:27:42;;;;;;;56.13;37.67;;;;;;;9.98;99.32;98371.34;1728280;81;21095;-77
2022/04/01 08:30:12;;;;;;;57.33;39.27;;;;;;;10.03;99.23;98371.98;1727995;81;21132;-75
2022/04/01 08:32:41;;;;;;;54.67;41.57;;;;;;;10.10;99.26;98375.34;1726467;83;21007;-77
2022/04/01 08:35:10;;;;;;;50.57;38.00;;;;;;;10.21;99.52;98383.84;1725450;83;21102;-76
2022/04/01 08:37:39;;;;;;;54.43;36.30;;;;;;;10.30;98.54;98378.94;1721943;81;21106;-77
2022/04/01 08:40:10;;;;;;;49.83;37.87;;;;;;;10.30;98.05;98372.28;1721038;81;21124;-78
2022/04/01 08:42:38;;;;;;;48.50;35.23;;;;;;;10.31;98.06;98376.61;1719204;81;21063;-75
2022/04/01 08:45:08;;;;;;;48.20;34.63;;;;;;;10.29;96.91;98376.81;1701897;82;21702;-74
2022/04/01 08:47:38;;;;;;;46.67;33.97;;;;;;;10.28;96.75;98373.05;1732180;81;21303;-77
2022/04/01 08:50:09;;;;;;;50.70;37.70;;;;;;;10.28;97.08;98365.89;1730982;81;21073;-75
2022/04/01 08:52:40;;;;;;;53.27;39.03;;;;;;;10.33;97.47;98371.86;1721455;81;21137;-77
2022/04/01 08:55:10;;;;;;;48.70;36.20;;;;;;;10.43;97.74;98375.25;1731302;81;21006;-79
2022/04/01 08:59:15;;;;;;;48.43;35.90;;;;;;;10.50;96.03;98383.92;1764630;79;22894;-75
2022/04/01 09:01:45;;;;;;;54.40;39.97;;;;;;;10.42;95.85;98383.77;1712389;81;20989;-77
2022/04/01 09:04:21;;;;;;;54.57;40.00;;;;;;;10.41;96.25;98383.47;1718106;81;21097;-74
2022/04/01 09:06:51;;;;;;;55.63;40.30;;;;;;;10.43;96.34;98387.23;1713640;82;20981;-79
2022/04/01 09:09:26;;;;;;;47.70;38.33;;;;;;;10.44;96.17;98387.00;1721328;81;21564;-79
2022/04/01 09:12:14;;;;;;;56.10;42.63;;;;;;;10.46;96.16;98387.58;1718059;81;21576;-77
2022/04/01 09:14:54;;;;;;;50.47;40.03;;;;;;;10.47;96.35;98395.03;1713997;81;20975;-78
2022/04/01 09:17:22;;;;;;;51.03;38.30;;;;;;;10.47;96.23;98391.88;1722279;81;21001;-78
2022/04/01 09:20:09;;;;;;;55.43;39.20;;;;;;;10.50;96.37;98395.91;1718701;81;21597;-76
2022/04/01 09:22:35;;;;;;;50.67;37.63;;;;;;;10.56;96.51;98390.97;1717600;81;21038;-77
2022/04/01 09:25:11;;;;;;;55.97;39.70;;;;;;;10.59;95.84;98389.70;1688814;83;21009;-78
2022/04/01 09:27:46;;;;;;;53.68;39.08;;;;;;;10.60;95.46;98388.11;1706017;83;21002;-76
2022/04/01 09:30:26;;;;;;;52.60;38.47;;;;;;;10.58;95.32;98396.86;1707036;83;21092;-78
2022/04/01 09:33:00;;;;;;;57.57;39.80;;;;;;;10.58;95.45;98391.53;1677562;84;21097;-81
2022/04/01 09:35:30;;;;;;;51.10;38.97;;;;;;;10.60;95.66;98390.77;1645951;84;21040;-78
2022/04/01 09:38:04;;;;;;;49.27;35.87;;;;;;;10.66;95.82;98383.69;1671434;84;21070;-77
2022/04/01 09:40:35;;;;;;;49.57;37.33;;;;;;;10.70;95.48;98387.00;1663295;84;21675;-75
2022/04/01 09:43:02;;;;;;;47.27;33.57;;;;;;;10.74;95.41;98382.50;1673591;84;21017;-74
2022/04/01 09:45:39;;;;;;;47.90;36.73;;;;;;;10.70;94.35;98383.00;1623282;86;21068;-79
2022/04/01 09:48:09;;;;;;;48.60;37.87;;;;;;;10.69;95.05;98382.70;1640410;85;21109;-78
2022/04/01 09:50:40;;;;;;;44.17;35.83;;;;;;;10.74;95.65;98382.50;1624096;87;21016;-78
2022/04/01 09:53:19;;;;;;;50.63;40.03;;;;;;;10.82;95.74;98379.48;1641401;85;21117;-78
2022/04/01 09:55:50;;;;;;;49.60;39.73;;;;;;;10.85;95.23;98378.98;1623350;85;21035;-78
2022/04/01 09:58:22;;;;;;;49.63;40.53;;;;;;;10.87;95.38;98384.92;1640567;86;21193;-77
2022/04/01 10:00:52;;;;;;;48.00;40.50;;;;;;;10.89;95.41;98379.63;1615087;86;21019;-78
2022/04/01 10:03:20;;;;;;;50.87;41.20;;;;;;;10.89;95.50;98377.48;1619392;86;21603;-80
2022/04/01 10:05:51;;;;;;;51.13;39.60;;;;;;;10.93;95.88;98381.30;1619264;86;21074;-77
2022/04/01 10:08:25;;;;;;;49.50;38.43;;;;;;;10.96;95.88;98382.12;1614055;86;21473;-79
2022/04/01 10:10:55;;;;;;;45.73;38.10;;;;;;;10.99;96.08;98386.99;1624204;86;21118;-75
2022/04/01 10:13:32;;;;;;;42.43;36.03;;;;;;;11.01;96.32;98379.56;1621651;86;21409;-78
2022/04/01 10:16:05;;;;;;;49.47;38.60;;;;;;;11.04;96.22;98384.43;1603342;88;21150;-77
2022/04/01 10:18:33;;;;;;;53.13;39.00;;;;;;;11.06;96.10;98382.86;1571229;88;21401;-76
2022/04/01 10:21:04;;;;;;;53.90;38.20;;;;;;;11.05;95.90;98386.56;1599267;88;21107;-77
2022/04/01 10:23:35;;;;;;;54.97;37.73;;;;;;;11.05;96.11;98390.03;1617671;86;21375;-78
2022/04/01 10:26:11;;;;;;;41.95;34.43;;;;;;;11.08;96.27;98384.77;1623662;86;21061;-78
2022/04/01 10:28:38;;;;;;;39.33;30.83;;;;;;;11.09;96.24;98385.86;1622363;86;21071;-77
2022/04/01 10:31:11;;;;;;;43.17;36.33;;;;;;;11.10;96.07;98382.66;1629319;86;21085;-78
2022/04/01 10:33:39;;;;;;;35.93;31.57;;;;;;;11.08;96.18;98382.90;1646691;84;21031;-77
2022/04/01 10:36:34;;;;;;;39.83;31.97;;;;;;;11.12;96.47;98381.09;1673645;84;21627;-76
2022/04/01 10:39:10;;;;;;;45.20;33.10;;;;;;;11.10;96.15;98388.80;1680432;84;21046;-79
2022/04/01 10:41:38;;;;;;;41.37;31.73;;;;;;;11.08;96.37;98382.90;1681336;84;21633;-79
2022/04/01 10:44:06;;;;;;;45.63;33.57;;;;;;;11.09;96.61;98383.20;1685922;84;21100;-79
2022/04/01 10:46:38;;;;;;;37.93;31.83;;;;;;;11.12;96.56;98387.23;1681360;84;21088;-77
2022/04/01 10:52:18;;;;;;;46.05;32.75;;;;;;;11.28;97.45;98383.80;1630244;86;21499;-75
2022/04/01 10:54:50;;;;;;;44.00;31.53;;;;;;;11.39;97.29;98386.09;1628262;86;21544;-78
2022/04/01 10:57:30;;;;;;;53.10;34.63;;;;;;;11.43;96.62;98384.58;1662580;84;21086;-71
2022/04/01 11:00:07;;;;;;;49.73;32.67;;;;;;;11.45;96.18;98389.14;1665268;84;21201;-80
2022/04/01 11:02:36;;;;;;;39.50;31.17;;;;;;;11.49;96.20;98393.47;1662592;84;21034;-75
2022/04/01 11:05:28;;;;;;;40.53;31.63;;;;;;;11.52;95.96;98393.50;1639667;85;22196;-78
2022/04/01 11:08:20;;;;;;;43.63;31.50;;;;;;;11.54;96.00;98389.53;1639549;84;21045;-79
2022/04/01 11:11:08;;;;;;;44.13;30.37;;;;;;;11.62;95.87;98397.16;1661400;84;21095;-78
2022/04/01 11:13:38;;;;;;;36.10;28.07;;;;;;;11.66;95.87;98389.48;1656752;84;21082;-78
2022/04/01 11:16:20;;;;;;;48.40;32.50;;;;;;;11.69;95.55;98389.77;1661062;84;21120;-77
2022/04/01 11:19:25;;;;;;;48.57;31.17;;;;;;;11.72;95.33;98381.83;1661331;84;21083;-77
2022/04/01 11:21:54;;;;;;;44.45;31.27;;;;;;;11.75;94.98;98387.98;1625642;85;21019;-78
2022/04/01 11:24:30;;;;;;;40.57;29.83;;;;;;;11.73;94.43;98389.30;1645077;84;21421;-75
2022/04/01 11:27:23;;;;;;;37.55;29.00;;;;;;;11.68;94.01;98394.84;1629169;86;21062;-71
2022/04/01 11:30:13;;;;;;;39.53;30.97;;;;;;;11.65;94.08;98389.18;1636725;86;21050;-78
2022/04/01 11:32:46;;;;;;;33.70;26.48;;;;;;;11.61;93.67;98394.72;1647028;85;21121;-76
2022/04/01 11:35:16;;;;;;;38.37;28.57;;;;;;;11.54;93.69;98390.06;1628076;85;21126;-78
2022/04/01 11:37:49;;;;;;;37.70;28.33;;;;;;;11.46;93.61;98395.28;1627001;85;21054;-77
2022/04/01 11:40:27;;;;;;;36.08;28.50;;;;;;;11.40;93.63;98393.59;1651438;85;22609;-73
2022/04/01 11:43:08;;;;;;;37.03;27.40;;;;;;;11.38;94.05;98396.48;1652929;85;21132;-76
2022/04/01 11:45:46;;;;;;;42.47;28.10;;;;;;;11.37;94.01;98396.19;1640244;85;21084;-78
2022/04/01 11:48:29;;;;;;;31.87;25.93;;;;;;;11.36;93.92;98405.77;1613172;87;21066;-73
2022/04/01 11:51:19;;;;;;;38.53;27.98;;;;;;;11.32;93.85;98408.13;1609324;88;21526;-74
2022/04/01 11:53:53;;;;;;;38.27;26.63;;;;;;;11.26;94.07;98415.23;1651924;85;21130;-75
2022/04/01 11:56:26;;;;;;;31.20;24.02;;;;;;;11.21;94.12;98415.13;1650709;85;21553;-76